Hendersonville, NC

3:34 PM EST on November 28, 2014 (GMT -0500)
Willow Creek - The Shack | Change Station
CLOSE
Current Station
Personal Weather Station
Location: Etowah, NC
Elevation: 2474 ft
Nearby Weather Stations

Elev 2474 ft 35.30 °N, 82.54 °W | Updated 2 minutes ago

Clear
Clear
42.8 °F
Feels Like 41 °F
N
3.8
Wind Variable Wind from SE
Gusts 3.8 mph

Today
High -- | Low -- °F
--% Chance of Precip.
Yesterday
High -- | Low -- °F
Precip. -- in
7:17 AM 5:18 PM
Waxing Crescent, 43% visible
Pressure 30.27 in
Visibility 10.0 miles
Clouds Clear
Windchill 41 °F
Dew Point 42 °F
Humidity 99%
Rainfall 0.56 in
Snow Depth Not available.
UV 2 out of 12
Pollen .30 out of 12
Air Quality Not available.
Flu Activity Not available.
METAR KAVL 281954Z 34006KT 10SM CLR 06/M08 A3024 RMK AO2 SLP248 T00561078

More Conditions Fewer Conditions

Pressure 30.27 in
Visibility 10.0 miles
Clouds Clear
Windchill 41 °F
Dew Point 42 °F
Humidity 99%
Rainfall 0.56 in
Snow Depth Not available.
UV 2 out of 12
Pollen .30 out of 12
Air Quality Not available.
Flu Activity Not available.
METAR KAVL 281954Z 34006KT 10SM CLR 06/M08 A3024 RMK AO2 SLP248 T00561078

More Conditions Fewer Conditions

10-Day Weather Forecast

Almanac

Astronomy

Nov. 28, 2014 Rise Set
Actual Time
Civil Twilight
Nautical Twilight
Astronomical Twilight
Moon
Length of Visible Light
Length of Day
Tomorrow will be .
, % of the Moon is Illuminated

Today's Extremes

State Highs State Lows

Community

WunderPhotos

Upload Photos

1,774,274 photos uploaded!

WunderBlogs® & News

Nearby

Air Quality

  Air Quality AQ Index Pollutant
Not available.

Snow Depth

Station Depth Elevation

Earthquake Activity

City Distance Mag. Time & Date
Minimum magnitude displayed is 2.5.

Coastal Water Temperatures

Place Temperature

Nearby Weather Stations